N24063 PHOG-PHKO
Flight info
| Callsign | N24063 |
|---|---|
| Flight time | 0h 33m |
| Altitude | 9000 |
| Route | DCT |
| Aircraft | COL4/L-V/N |
Departure
| Time | 2026-04-24 00:32 |
|---|---|
| Airport | Kahului International Airport (PHOG) |
Arrival
| Time | 2026-04-24 01:05 |
|---|---|
| Airport | Ellison Onizuka Kona International Airport at Keāhole (PHKO) |
| Time | Latitude | Longitude | Altitude | Speed | Heading |
|---|---|---|---|---|---|
| 2026-04-24 00:06 | 20.89712 | -156.42852 | 44 ft | 0 kts | 306° |
| 2026-04-24 00:24 | 20.89714 | -156.42855 | 25 ft | 0 kts | 306° |
| 2026-04-24 00:25 | 20.89716 | -156.42857 | 27 ft | 2 kts | 306° |
| 2026-04-24 00:25 | 20.89724 | -156.42868 | 26 ft | 0 kts | 304° |
| 2026-04-24 00:26 | 20.89727 | -156.42883 | 26 ft | 6 kts | 241° |
| 2026-04-24 00:26 | 20.89688 | -156.42911 | 25 ft | 7 kts | 217° |
| 2026-04-24 00:26 | 20.89653 | -156.42938 | 26 ft | 6 kts | 215° |
| 2026-04-24 00:27 | 20.89629 | -156.42955 | 26 ft | 7 kts | 215° |
| 2026-04-24 00:27 | 20.89585 | -156.42989 | 26 ft | 9 kts | 218° |
| 2026-04-24 00:27 | 20.89530 | -156.43027 | 26 ft | 10 kts | 219° |
| 2026-04-24 00:27 | 20.89469 | -156.43074 | 26 ft | 12 kts | 217° |
| 2026-04-24 00:28 | 20.89433 | -156.43105 | 27 ft | 8 kts | 232° |
| 2026-04-24 00:28 | 20.89423 | -156.43131 | 27 ft | 0 kts | 261° |
| 2026-04-24 00:29 | 20.89421 | -156.43142 | 27 ft | 4 kts | 263° |
| 2026-04-24 00:29 | 20.89413 | -156.43187 | 27 ft | 7 kts | 260° |
| 2026-04-24 00:30 | 20.89410 | -156.43232 | 28 ft | 5 kts | 301° |
| 2026-04-24 00:30 | 20.89433 | -156.43244 | 28 ft | 3 kts | 30° |
| 2026-04-24 00:30 | 20.89466 | -156.43221 | 28 ft | 15 kts | 31° |
| 2026-04-24 00:30 | 20.89626 | -156.43107 | 27 ft | 39 kts | 31° |
| 2026-04-24 00:31 | 20.89905 | -156.42921 | 25 ft | 56 kts | 29° |
| 2026-04-24 00:31 | 20.90234 | -156.42699 | 96 ft | 57 kts | 30° |
| 2026-04-24 00:31 | 20.90549 | -156.42454 | 179 ft | 55 kts | 27° |
| 2026-04-24 00:31 | 20.90846 | -156.42219 | 308 ft | 48 kts | 37° |
| 2026-04-24 00:32 | 20.90881 | -156.41726 | 279 ft | 98 kts | 96° |
| 2026-04-24 00:32 | 20.90388 | -156.41145 | 443 ft | 115 kts | 154° |
| 2026-04-24 00:32 | 20.89595 | -156.41249 | 589 ft | 120 kts | 211° |
| 2026-04-24 00:32 | 20.88875 | -156.41730 | 732 ft | 125 kts | 216° |
| 2026-04-24 00:33 | 20.88194 | -156.42264 | 867 ft | 116 kts | 218° |
| 2026-04-24 00:33 | 20.87564 | -156.42808 | 1060 ft | 116 kts | 220° |
| 2026-04-24 00:33 | 20.86951 | -156.43370 | 1142 ft | 118 kts | 227° |
| 2026-04-24 00:33 | 20.86328 | -156.43960 | 1278 ft | 119 kts | 225° |
| 2026-04-24 00:34 | 20.85750 | -156.44541 | 1460 ft | 111 kts | 222° |
| 2026-04-24 00:34 | 20.85162 | -156.45072 | 1563 ft | 111 kts | 224° |
| 2026-04-24 00:34 | 20.84550 | -156.45589 | 1629 ft | 115 kts | 212° |
| 2026-04-24 00:34 | 20.83842 | -156.45972 | 1717 ft | 114 kts | 186° |
| 2026-04-24 00:35 | 20.83026 | -156.46108 | 1693 ft | 125 kts | 191° |
| 2026-04-24 00:35 | 20.82190 | -156.46150 | 1857 ft | 116 kts | 171° |
| 2026-04-24 00:35 | 20.81360 | -156.46171 | 1946 ft | 120 kts | 178° |
| 2026-04-24 00:35 | 20.80492 | -156.46255 | 1970 ft | 126 kts | 185° |
| 2026-04-24 00:36 | 20.79613 | -156.46356 | 1975 ft | 132 kts | 186° |
| 2026-04-24 00:36 | 20.78696 | -156.46490 | 2031 ft | 132 kts | 183° |
| 2026-04-24 00:36 | 20.77786 | -156.46407 | 2127 ft | 130 kts | 164° |
| 2026-04-24 00:36 | 20.76888 | -156.46228 | 2197 ft | 134 kts | 169° |
| 2026-04-24 00:37 | 20.75958 | -156.46095 | 2267 ft | 139 kts | 169° |
| 2026-04-24 00:37 | 20.74982 | -156.45985 | 2308 ft | 144 kts | 169° |
| 2026-04-24 00:37 | 20.73978 | -156.45833 | 2343 ft | 144 kts | 169° |
| 2026-04-24 00:37 | 20.72994 | -156.45722 | 2453 ft | 143 kts | 173° |
| 2026-04-24 00:38 | 20.72000 | -156.45623 | 2507 ft | 146 kts | 171° |
| 2026-04-24 00:38 | 20.71011 | -156.45368 | 2547 ft | 148 kts | 162° |
| 2026-04-24 00:38 | 20.70027 | -156.45084 | 2636 ft | 145 kts | 163° |
| 2026-04-24 00:38 | 20.69050 | -156.44792 | 2676 ft | 146 kts | 161° |
| 2026-04-24 00:39 | 20.68061 | -156.44488 | 2688 ft | 150 kts | 161° |
| 2026-04-24 00:39 | 20.67017 | -156.44270 | 2690 ft | 155 kts | 165° |
| 2026-04-24 00:39 | 20.65954 | -156.44027 | 2692 ft | 157 kts | 165° |
| 2026-04-24 00:39 | 20.64885 | -156.43770 | 2695 ft | 158 kts | 165° |
| 2026-04-24 00:40 | 20.63807 | -156.43517 | 2694 ft | 159 kts | 167° |
| 2026-04-24 00:40 | 20.62721 | -156.43243 | 2693 ft | 162 kts | 164° |
| 2026-04-24 00:40 | 20.61628 | -156.42975 | 2692 ft | 159 kts | 165° |
| 2026-04-24 00:40 | 20.60575 | -156.42654 | 2684 ft | 155 kts | 156° |
| 2026-04-24 00:41 | 20.59580 | -156.42255 | 2678 ft | 154 kts | 158° |
| 2026-04-24 00:41 | 20.58567 | -156.41848 | 2679 ft | 155 kts | 157° |
| 2026-04-24 00:41 | 20.57571 | -156.41463 | 2680 ft | 153 kts | 156° |
| 2026-04-24 00:41 | 20.56573 | -156.41082 | 2683 ft | 151 kts | 158° |
| 2026-04-24 00:42 | 20.55594 | -156.40694 | 2685 ft | 149 kts | 157° |
| 2026-04-24 00:42 | 20.54621 | -156.40320 | 2678 ft | 147 kts | 156° |
| 2026-04-24 00:42 | 20.53662 | -156.39948 | 2674 ft | 147 kts | 157° |
| 2026-04-24 00:42 | 20.52707 | -156.39582 | 2676 ft | 145 kts | 156° |
| 2026-04-24 00:43 | 20.51761 | -156.39215 | 2680 ft | 145 kts | 156° |
| 2026-04-24 00:43 | 20.50816 | -156.38848 | 2676 ft | 144 kts | 156° |
| 2026-04-24 00:43 | 20.49868 | -156.38491 | 2684 ft | 145 kts | 158° |
| 2026-04-24 00:43 | 20.48912 | -156.38108 | 2675 ft | 148 kts | 155° |
| 2026-04-24 00:44 | 20.47927 | -156.37735 | 2669 ft | 151 kts | 157° |
| 2026-04-24 00:44 | 20.46933 | -156.37356 | 2678 ft | 152 kts | 158° |
| 2026-04-24 00:44 | 20.45945 | -156.36970 | 2677 ft | 151 kts | 156° |
| 2026-04-24 00:44 | 20.44951 | -156.36590 | 2676 ft | 152 kts | 158° |
| 2026-04-24 00:45 | 20.43952 | -156.36209 | 2680 ft | 152 kts | 157° |
| 2026-04-24 00:45 | 20.42955 | -156.35820 | 2677 ft | 153 kts | 158° |
| 2026-04-24 00:45 | 20.41970 | -156.35415 | 2673 ft | 150 kts | 158° |
| 2026-04-24 00:45 | 20.41005 | -156.35023 | 2675 ft | 148 kts | 156° |
| 2026-04-24 00:46 | 20.40046 | -156.34652 | 2672 ft | 147 kts | 156° |
| 2026-04-24 00:46 | 20.39081 | -156.34275 | 2670 ft | 148 kts | 156° |
| 2026-04-24 00:46 | 20.38116 | -156.33888 | 2672 ft | 149 kts | 156° |
| 2026-04-24 00:46 | 20.37158 | -156.33512 | 2672 ft | 149 kts | 158° |
| 2026-04-24 00:47 | 20.36193 | -156.33136 | 2658 ft | 150 kts | 157° |
| 2026-04-24 00:47 | 20.35210 | -156.32761 | 2655 ft | 151 kts | 157° |
| 2026-04-24 00:47 | 20.34226 | -156.32375 | 2658 ft | 151 kts | 156° |
| 2026-04-24 00:47 | 20.33237 | -156.31993 | 2659 ft | 152 kts | 157° |
| 2026-04-24 00:48 | 20.32250 | -156.31592 | 2654 ft | 152 kts | 157° |
| 2026-04-24 00:48 | 20.31266 | -156.31214 | 2656 ft | 150 kts | 157° |
| 2026-04-24 00:48 | 20.30293 | -156.30839 | 2657 ft | 148 kts | 156° |
| 2026-04-24 00:48 | 20.29316 | -156.30459 | 2665 ft | 152 kts | 158° |
| 2026-04-24 00:49 | 20.28296 | -156.30056 | 2666 ft | 161 kts | 158° |
| 2026-04-24 00:49 | 20.27222 | -156.29635 | 2668 ft | 167 kts | 155° |
| 2026-04-24 00:49 | 20.26137 | -156.29153 | 2666 ft | 171 kts | 155° |
| 2026-04-24 00:49 | 20.25028 | -156.28645 | 2670 ft | 175 kts | 154° |
| 2026-04-24 00:50 | 20.24283 | -156.28302 | 2664 ft | 177 kts | 155° |
| 2026-04-24 00:50 | 20.22753 | -156.27602 | 2658 ft | 181 kts | 155° |
| 2026-04-24 00:50 | 20.21599 | -156.27069 | 2668 ft | 181 kts | 154° |
| 2026-04-24 00:50 | 20.20449 | -156.26531 | 2667 ft | 180 kts | 155° |
| 2026-04-24 00:51 | 20.19297 | -156.25983 | 2660 ft | 182 kts | 153° |
| 2026-04-24 00:51 | 20.18150 | -156.25454 | 2657 ft | 179 kts | 155° |
| 2026-04-24 00:51 | 20.17036 | -156.24933 | 2659 ft | 170 kts | 152° |
| 2026-04-24 00:51 | 20.15941 | -156.24501 | 2653 ft | 166 kts | 153° |
| 2026-04-24 00:52 | 20.14853 | -156.24118 | 2647 ft | 162 kts | 154° |
| 2026-04-24 00:52 | 20.13784 | -156.23753 | 2645 ft | 160 kts | 154° |
| 2026-04-24 00:52 | 20.12725 | -156.23411 | 2645 ft | 158 kts | 154° |
| 2026-04-24 00:52 | 20.11678 | -156.23080 | 2653 ft | 157 kts | 155° |
| 2026-04-24 00:53 | 20.10648 | -156.22740 | 2653 ft | 153 kts | 153° |
| 2026-04-24 00:53 | 20.09633 | -156.22395 | 2646 ft | 153 kts | 154° |
| 2026-04-24 00:53 | 20.08631 | -156.22057 | 2643 ft | 148 kts | 155° |
| 2026-04-24 00:53 | 20.07676 | -156.21691 | 2641 ft | 145 kts | 152° |
| 2026-04-24 00:54 | 20.06720 | -156.21358 | 2637 ft | 145 kts | 155° |
| 2026-04-24 00:54 | 20.05769 | -156.21026 | 2640 ft | 144 kts | 152° |
| 2026-04-24 00:54 | 20.04810 | -156.20688 | 2638 ft | 145 kts | 155° |
| 2026-04-24 00:54 | 20.03869 | -156.20322 | 2639 ft | 144 kts | 154° |
| 2026-04-24 00:55 | 20.02929 | -156.19952 | 2644 ft | 145 kts | 153° |
| 2026-04-24 00:55 | 20.01977 | -156.19622 | 2641 ft | 146 kts | 155° |
| 2026-04-24 00:55 | 20.01324 | -156.19410 | 2642 ft | 144 kts | 154° |
| 2026-04-24 00:55 | 20.00206 | -156.18762 | 2643 ft | 138 kts | 141° |
| 2026-04-24 00:56 | 19.99406 | -156.18196 | 2646 ft | 139 kts | 141° |
| 2026-04-24 00:56 | 19.98595 | -156.17629 | 2646 ft | 139 kts | 140° |
| 2026-04-24 00:56 | 19.97774 | -156.17076 | 2647 ft | 140 kts | 140° |
| 2026-04-24 00:56 | 19.96964 | -156.16499 | 2646 ft | 141 kts | 140° |
| 2026-04-24 00:57 | 19.96160 | -156.15901 | 2647 ft | 141 kts | 139° |
| 2026-04-24 00:57 | 19.95343 | -156.15336 | 2652 ft | 140 kts | 140° |
| 2026-04-24 00:57 | 19.93651 | -156.14282 | 2657 ft | 141 kts | 140° |
| 2026-04-24 00:58 | 19.92793 | -156.13736 | 2659 ft | 145 kts | 140° |
| 2026-04-24 00:58 | 19.91934 | -156.13184 | 2658 ft | 147 kts | 141° |
| 2026-04-24 00:58 | 19.91069 | -156.12617 | 2662 ft | 146 kts | 139° |
| 2026-04-24 00:58 | 19.90194 | -156.12054 | 2662 ft | 148 kts | 142° |
| 2026-04-24 00:59 | 19.89332 | -156.11456 | 2663 ft | 149 kts | 139° |
| 2026-04-24 00:59 | 19.88449 | -156.10887 | 2667 ft | 147 kts | 140° |
| 2026-04-24 00:59 | 19.87584 | -156.10301 | 2639 ft | 149 kts | 141° |
| 2026-04-24 00:59 | 19.86743 | -156.09678 | 2469 ft | 146 kts | 140° |
| 2026-04-24 01:00 | 19.85902 | -156.09087 | 2275 ft | 145 kts | 140° |
| 2026-04-24 01:00 | 19.85244 | -156.08362 | 2065 ft | 131 kts | 105° |
| 2026-04-24 01:00 | 19.84952 | -156.07479 | 1852 ft | 127 kts | 104° |
| 2026-04-24 01:00 | 19.84711 | -156.06592 | 1615 ft | 125 kts | 95° |
| 2026-04-24 01:01 | 19.84493 | -156.05711 | 1471 ft | 119 kts | 98° |
| 2026-04-24 01:01 | 19.84309 | -156.04901 | 1381 ft | 107 kts | 95° |
| 2026-04-24 01:01 | 19.84128 | -156.04172 | 1291 ft | 99 kts | 103° |
| 2026-04-24 01:01 | 19.83607 | -156.03665 | 1187 ft | 102 kts | 136° |
| 2026-04-24 01:02 | 19.82887 | -156.03584 | 1084 ft | 116 kts | 187° |
| 2026-04-24 01:02 | 19.82100 | -156.03777 | 1037 ft | 112 kts | 185° |
| 2026-04-24 01:02 | 19.81354 | -156.04010 | 928 ft | 112 kts | 186° |
| 2026-04-24 01:02 | 19.80661 | -156.04027 | 842 ft | 109 kts | 173° |
| 2026-04-24 01:03 | 19.79905 | -156.04010 | 725 ft | 107 kts | 176° |
| 2026-04-24 01:03 | 19.79200 | -156.04029 | 649 ft | 98 kts | 182° |
| 2026-04-24 01:03 | 19.78556 | -156.04054 | 566 ft | 89 kts | 180° |
| 2026-04-24 01:03 | 19.77994 | -156.03997 | 520 ft | 76 kts | 167° |
| 2026-04-24 01:04 | 19.77478 | -156.03977 | 455 ft | 67 kts | 196° |
| 2026-04-24 01:04 | 19.77055 | -156.04065 | 348 ft | 58 kts | 204° |
| 2026-04-24 01:04 | 19.76681 | -156.04195 | 222 ft | 57 kts | 203° |
| 2026-04-24 01:04 | 19.76297 | -156.04264 | 148 ft | 55 kts | 195° |
| 2026-04-24 01:05 | 19.75902 | -156.04308 | 94 ft | 57 kts | 199° |
| 2026-04-24 01:05 | 19.75501 | -156.04389 | 65 ft | 61 kts | 196° |
| 2026-04-24 01:05 | 19.75096 | -156.04456 | 45 ft | 53 kts | 188° |
| 2026-04-24 01:05 | 19.74752 | -156.04493 | 43 ft | 47 kts | 183° |
| 2026-04-24 01:06 | 19.74429 | -156.04526 | 40 ft | 45 kts | 194° |
| 2026-04-24 01:06 | 19.74152 | -156.04516 | 40 ft | 25 kts | 123° |
| 2026-04-24 01:06 | 19.74129 | -156.04374 | 39 ft | 17 kts | 95° |
| 2026-04-24 01:06 | 19.74120 | -156.04311 | 38 ft | 5 kts | 104° |
| 2026-04-24 01:07 | 19.74097 | -156.04291 | 38 ft | 4 kts | 165° |
| 2026-04-24 01:07 | 19.74080 | -156.04292 | 38 ft | 0 kts | 186° |
| 2026-04-24 01:07 | 19.74053 | -156.04295 | 38 ft | 7 kts | 187° |
| 2026-04-24 01:08 | 19.74004 | -156.04300 | 38 ft | 7 kts | 180° |
| 2026-04-24 01:08 | 19.73962 | -156.04302 | 38 ft | 6 kts | 186° |
| 2026-04-24 01:08 | 19.73927 | -156.04308 | 37 ft | 5 kts | 189° |
| 2026-04-24 01:08 | 19.73900 | -156.04313 | 37 ft | 4 kts | 191° |
| 2026-04-24 01:09 | 19.73879 | -156.04317 | 37 ft | 2 kts | 184° |
| 2026-04-24 01:09 | 19.73877 | -156.04317 | 37 ft | 0 kts | 173° |
| 2026-04-24 01:10 | 19.73858 | -156.04314 | 37 ft | 6 kts | 171° |
| 2026-04-24 01:10 | 19.73852 | -156.04278 | 37 ft | 5 kts | 84° |
| 2026-04-24 01:10 | 19.73852 | -156.04252 | 38 ft | 2 kts | 97° |
| 2026-04-24 01:10 | 19.73851 | -156.04250 | 38 ft | 1 kts | 95° |
| 2026-04-24 01:11 | 19.73848 | -156.04205 | 39 ft | 10 kts | 93° |
| 2026-04-24 01:11 | 19.73847 | -156.04162 | 42 ft | 1 kts | 55° |
| 2026-04-24 01:11 | 19.73858 | -156.04145 | 42 ft | 4 kts | 59° |
| 2026-04-24 01:11 | 19.73863 | -156.04136 | 43 ft | 0 kts | 61° |